Time;durP1;ratioP1;P1;durP2;ratioP2;P2;SDS_P1;SDS_P2;PMS_P1;PMS_P2;Temp;Humidity;BMP_temperature;BMP_pressure;BME280_temperature;BME280_humidity;BME280_pressure;Samples;Min_cycle;Max_cycle;Signal;HPM_P1;HPM_P2
2022/10/10 00:11:44;;;;;;;69.20;33.70;;;;;;;6.67;86.61;101476.58;638941;1312;140208;-81
2022/10/10 00:42:50;;;;;;;50.60;26.50;;;;;;;6.35;85.75;101457.72;624370;1326;984400;-82
2022/10/10 00:57:54;;;;;;;52.90;27.50;;;;;;;6.12;85.40;101453.49;635162;1320;139306;-81
2022/10/10 01:13:06;;;;;;;49.70;24.60;;;;;;;5.89;85.76;101445.76;633066;1305;138407;-80
2022/10/10 01:28:19;;;;;;;56.20;25.30;;;;;;;5.85;85.74;101437.82;636580;1316;139235;-81
2022/10/10 01:43:24;;;;;;;59.30;29.90;;;;;;;5.70;85.53;101431.74;636314;1305;139615;-81
2022/10/10 01:58:34;;;;;;;54.20;26.50;;;;;;;5.59;86.23;101436.64;636672;1317;138210;-83
2022/10/10 02:14:01;;;;;;;47.80;23.70;;;;;;;5.48;86.32;101429.67;636270;1312;140245;-81
2022/10/10 02:29:10;;;;;;;42.00;21.90;;;;;;;5.32;86.14;101423.87;637004;1308;138176;-82
2022/10/10 02:44:13;;;;;;;55.40;25.50;;;;;;;5.14;86.48;101416.58;637062;1302;138525;-82
2022/10/10 02:59:17;;;;;;;41.00;20.90;;;;;;;5.02;85.88;101414.36;636602;1318;139510;-81
2022/10/10 03:14:20;;;;;;;38.70;20.20;;;;;;;4.86;86.78;101406.25;636733;1301;139568;-81
2022/10/10 03:29:24;;;;;;;55.20;23.30;;;;;;;4.76;86.25;101404.64;635025;1305;138731;-82
2022/10/10 03:44:26;;;;;;;42.90;20.90;;;;;;;4.73;86.65;101395.92;636446;1302;139628;-81
2022/10/10 03:59:30;;;;;;;31.00;17.30;;;;;;;4.62;86.84;101390.70;636237;1304;139420;-82
2022/10/10 04:14:33;;;;;;;30.80;16.30;;;;;;;4.62;87.67;101390.70;652616;1301;140531;-82
2022/10/10 04:29:36;;;;;;;35.40;16.50;;;;;;;4.59;88.08;101392.25;644004;1296;138968;-82
2022/10/10 04:44:39;;;;;;;40.60;19.00;;;;;;;4.62;88.58;101377.88;639460;1300;140033;-82
2022/10/10 04:59:42;;;;;;;32.20;13.80;;;;;;;4.70;89.99;101368.35;639239;1300;140439;-82
2022/10/10 05:14:46;;;;;;;30.60;13.40;;;;;;;5.17;92.88;101357.79;638569;1292;139414;-82
2022/10/10 05:29:50;;;;;;;69.10;29.80;;;;;;;5.43;93.82;101361.23;638520;1301;139906;-82
2022/10/10 05:44:53;;;;;;;101.50;48.00;;;;;;;5.29;91.88;101372.48;637150;1297;142657;-82
2022/10/10 05:59:56;;;;;;;51.20;24.30;;;;;;;5.38;92.64;101373.11;637654;1298;138738;-82
2022/10/10 06:14:59;;;;;;;27.10;15.00;;;;;;;6.19;97.46;101358.27;638568;1302;140502;-81
2022/10/10 06:30:04;;;;;;;40.10;17.70;;;;;;;7.62;98.84;101371.98;637884;1287;138636;-82
2022/10/10 06:45:08;;;;;;;33.10;16.20;;;;;;;8.98;98.17;101363.95;638331;1299;139836;-83
2022/10/10 07:00:11;;;;;;;60.20;31.60;;;;;;;9.92;98.26;101351.30;638652;1298;140565;-82
2022/10/10 07:15:15;;;;;;;51.30;23.90;;;;;;;10.64;96.87;101348.95;648298;1291;139911;-81
2022/10/10 07:30:18;;;;;;;37.80;16.00;;;;;;;11.33;95.37;101338.34;642575;1293;141195;-82
2022/10/10 07:45:21;;;;;;;17.60;9.90;;;;;;;11.99;93.91;101326.39;644935;1299;140353;-83
2022/10/10 08:00:25;;;;;;;14.80;8.90;;;;;;;12.58;90.65;101317.92;640976;1294;140525;-84
2022/10/10 08:15:29;;;;;;;82.60;31.60;;;;;;;13.12;86.61;101308.49;639274;1305;140719;-84
2022/10/10 08:30:40;;;;;;;53.20;33.30;;;;;;;13.70;82.46;101291.41;638877;1298;139030;-82
2022/10/10 08:45:43;;;;;;;14.50;8.00;;;;;;;14.14;77.48;101264.26;639627;1298;141240;-85
2022/10/10 09:01:07;;;;;;;13.40;7.30;;;;;;;14.58;74.15;101259.00;638517;1291;140386;-82
2022/10/10 09:16:35;;;;;;;13.00;6.10;;;;;;;14.85;71.47;101247.88;638387;1298;140404;-83
2022/10/10 09:31:46;;;;;;;8.70;5.40;;;;;;;15.54;70.04;101227.98;638199;1299;139338;-83
2022/10/10 09:46:51;;;;;;;10.70;5.70;;;;;;;16.32;67.89;101207.58;639097;1291;138570;-83
2022/10/10 10:02:11;;;;;;;8.20;6.10;;;;;;;16.96;63.66;101194.57;639878;1294;139886;-83
2022/10/10 10:17:20;;;;;;;8.10;5.20;;;;;;;17.29;61.61;101177.47;638654;1291;138081;-82
2022/10/10 10:32:54;;;;;;;8.90;6.60;;;;;;;17.23;60.56;101162.83;638887;1294;139075;-83
2022/10/10 10:48:25;;;;;;;12.20;5.90;;;;;;;17.50;60.33;101137.60;639955;1299;139693;-83
2022/10/10 11:04:03;;;;;;;7.60;5.00;;;;;;;18.00;59.55;101108.32;645540;1292;139572;-84
2022/10/10 11:19:43;;;;;;;8.10;5.00;;;;;;;18.42;57.26;101076.66;639599;1298;138626;-83
2022/10/10 11:35:01;;;;;;;7.40;6.30;;;;;;;18.88;55.78;101053.00;641034;1297;138584;-84
2022/10/10 11:50:17;;;;;;;6.00;4.00;;;;;;;19.18;55.11;101030.54;642294;1298;139713;-87
2022/10/10 12:05:25;;;;;;;6.70;4.80;;;;;;;19.57;53.73;101013.67;639813;1291;138781;-84
2022/10/10 12:20:34;;;;;;;9.00;5.90;;;;;;;19.92;53.80;100995.70;639887;1299;138618;-85
2022/10/10 12:35:40;;;;;;;9.50;6.00;;;;;;;20.15;53.49;100978.38;640276;1305;141149;-84
2022/10/10 12:51:01;;;;;;;6.70;4.70;;;;;;;21.00;53.06;100951.22;638473;1299;1001661;-84
2022/10/10 13:06:26;;;;;;;17.70;11.10;;;;;;;21.04;52.69;100916.46;639170;1299;139430;-83
2022/10/10 13:21:32;;;;;;;7.50;5.20;;;;;;;21.91;51.36;100896.49;639103;1299;140934;-82
2022/10/10 13:36:36;;;;;;;16.40;7.50;;;;;;;28.78;44.70;100866.06;641008;1297;139969;-81
2022/10/10 13:51:45;;;;;;;13.00;7.40;;;;;;;31.01;40.30;100841.88;639012;1291;139747;-81
2022/10/10 14:07:02;;;;;;;12.00;7.10;;;;;;;31.18;38.38;100822.98;638294;1298;139706;-81
2022/10/10 14:22:06;;;;;;;6.60;4.30;;;;;;;30.90;38.11;100807.13;637847;1291;139487;-82
2022/10/10 14:37:16;;;;;;;8.60;3.90;;;;;;;30.43;38.29;100789.40;639364;1297;139686;-82
2022/10/10 14:52:20;;;;;;;8.70;3.90;;;;;;;30.36;38.14;100766.83;639318;1297;139978;-82
2022/10/10 15:07:23;;;;;;;7.70;4.00;;;;;;;23.88;43.72;100748.21;637647;1292;138540;-81
2022/10/10 15:22:29;;;;;;;11.10;5.20;;;;;;;20.14;48.55;100732.02;639311;1292;138628;-82
2022/10/10 15:37:33;;;;;;;28.00;21.50;;;;;;;17.96;52.65;100714.89;640913;1292;140036;-81
2022/10/10 15:52:37;;;;;;;26.00;13.70;;;;;;;16.72;55.90;100697.97;638740;1302;139082;-81
2022/10/10 16:07:41;;;;;;;16.00;9.60;;;;;;;15.98;58.65;100684.84;638978;1291;140251;-81
2022/10/10 16:22:50;;;;;;;;;;;;;;;15.43;60.01;100677.98;639049;1299;138366;-81
2022/10/10 16:37:54;;;;;;;114.80;41.80;;;;;;;14.96;61.43;100682.16;638768;1297;125456;-80
2022/10/10 16:52:59;;;;;;;71.50;42.40;;;;;;;14.52;62.86;100679.05;639176;1298;139092;-81
2022/10/10 17:08:03;;;;;;;16.50;9.60;;;;;;;14.20;64.71;100674.59;637925;1302;139916;-82
2022/10/10 17:23:09;;;;;;;19.00;10.40;;;;;;;13.96;66.59;100685.73;639072;1304;138080;-82
2022/10/10 17:38:14;;;;;;;19.60;9.20;;;;;;;13.69;68.35;100674.48;637836;1307;139757;-82
2022/10/10 17:53:38;;;;;;;39.50;16.70;;;;;;;13.58;68.67;100657.13;637809;1313;139074;-82
2022/10/10 18:08:42;;;;;;;16.50;9.90;;;;;;;13.58;69.99;100647.10;638650;1307;139223;-82
2022/10/10 18:23:47;;;;;;;16.90;8.90;;;;;;;13.63;70.95;100629.95;638818;1308;139526;-82
2022/10/10 18:38:51;;;;;;;17.00;8.90;;;;;;;13.73;70.30;100611.41;638746;1298;139564;-81
2022/10/10 18:53:59;;;;;;;15.00;8.90;;;;;;;13.77;69.57;100605.20;639761;1299;139971;-81
2022/10/10 19:09:06;;;;;;;11.90;6.50;;;;;;;13.85;68.79;100589.92;640544;1308;140255;-82
2022/10/10 19:24:14;;;;;;;10.00;6.30;;;;;;;13.79;68.50;100570.41;640688;1297;140368;-83
2022/10/10 19:39:17;;;;;;;8.10;4.70;;;;;;;13.70;68.95;100550.39;640181;1312;138005;-81
2022/10/10 19:54:20;;;;;;;9.30;4.50;;;;;;;13.57;69.40;100533.85;639618;1297;139703;-81
2022/10/10 20:09:26;;;;;;;7.80;4.00;;;;;;;13.57;69.67;100525.42;641166;1297;138161;-81
2022/10/10 20:24:30;;;;;;;10.70;4.70;;;;;;;13.54;69.98;100518.77;642054;1297;139356;-79
2022/10/10 20:39:33;;;;;;;12.80;5.40;;;;;;;13.51;70.23;100510.88;641631;1294;139956;-80
2022/10/10 20:54:38;;;;;;;6.50;4.50;;;;;;;13.52;70.38;100491.66;643627;1295;140371;-81
2022/10/10 21:09:42;;;;;;;7.20;4.00;;;;;;;13.47;70.65;100482.80;645641;1294;140554;-81
2022/10/10 21:24:45;;;;;;;11.50;4.80;;;;;;;13.57;70.40;100469.40;643241;1295;139662;-81
2022/10/10 21:39:48;;;;;;;10.80;5.50;;;;;;;13.58;70.42;100465.23;640999;1294;139052;-81
2022/10/10 21:54:51;;;;;;;9.40;5.10;;;;;;;13.35;71.28;100457.20;640918;1295;140689;-82
2022/10/10 22:09:54;;;;;;;9.70;6.00;;;;;;;13.18;72.31;100459.23;640272;1305;138542;-80
2022/10/10 22:24:57;;;;;;;9.70;6.70;;;;;;;13.02;73.52;100453.20;640423;1295;139155;-81
2022/10/10 22:40:00;;;;;;;15.50;7.00;;;;;;;12.90;74.69;100454.75;640385;1289;139113;-81
2022/10/10 22:55:06;;;;;;;12.00;6.30;;;;;;;12.76;76.21;100446.59;641091;1294;139964;-81
2022/10/10 23:10:09;;;;;;;9.80;6.60;;;;;;;12.63;77.55;100436.00;640668;1295;139403;-80
2022/10/10 23:25:13;;;;;;;10.70;6.10;;;;;;;12.61;78.40;100438.09;641535;1288;139627;-81
2022/10/10 23:40:16;;;;;;;15.00;8.30;;;;;;;12.57;79.10;100442.35;641247;1288;140561;-81
2022/10/10 23:55:19;;;;;;;15.30;7.00;;;;;;;12.47;80.16;100438.70;641112;1291;141882;-81
